createdAt,value
2022-11-12T00:00:22.939Z,8.39
2022-11-12T00:01:22.973Z,8.37
2022-11-12T00:02:23.095Z,8.36
2022-11-12T00:03:23.201Z,8.36
2022-11-12T00:04:23.229Z,8.36
2022-11-12T00:05:23.281Z,8.35
2022-11-12T00:06:23.377Z,8.35
2022-11-12T00:07:23.518Z,8.33
2022-11-12T00:08:23.946Z,8.33
2022-11-12T00:09:23.659Z,8.32
2022-11-12T00:10:23.729Z,8.32
2022-11-12T00:11:23.793Z,8.32
2022-11-12T00:12:23.830Z,8.30
2022-11-12T00:13:24.007Z,8.30
2022-11-12T00:14:24.051Z,8.30
2022-11-12T00:15:24.150Z,8.30
2022-11-12T00:16:24.169Z,8.28
2022-11-12T00:17:24.364Z,8.30
2022-11-12T00:18:24.796Z,8.28
2022-11-12T00:19:24.512Z,8.28
2022-11-12T00:20:24.545Z,8.28
2022-11-12T00:21:24.617Z,8.26
2022-11-12T00:22:24.682Z,8.26
2022-11-12T00:23:24.801Z,8.25
2022-11-12T00:24:24.819Z,8.26
2022-11-12T00:25:24.912Z,8.25
2022-11-12T00:26:24.993Z,8.22
2022-11-12T00:27:25.087Z,8.21
2022-11-12T00:28:25.570Z,8.21
2022-11-12T00:29:25.264Z,8.20
2022-11-12T00:30:25.307Z,8.20
2022-11-12T00:31:25.352Z,8.20
2022-11-12T00:32:25.442Z,8.18
2022-11-12T00:33:25.521Z,8.18
2022-11-12T00:34:25.647Z,8.15
2022-11-12T00:35:25.687Z,8.17
2022-11-12T00:36:25.768Z,8.14
2022-11-12T00:37:25.853Z,8.12
2022-11-12T00:38:26.291Z,8.14
2022-11-12T00:39:26.053Z,8.12
2022-11-12T00:40:26.135Z,8.14
2022-11-12T00:41:26.225Z,8.10
2022-11-12T00:42:26.365Z,8.10
2022-11-12T00:43:26.368Z,8.10
2022-11-12T00:44:26.502Z,8.08
2022-11-12T00:45:26.592Z,8.08
2022-11-12T00:46:26.740Z,8.08
2022-11-12T00:47:26.743Z,8.08
2022-11-12T00:48:27.204Z,8.07
2022-11-12T00:49:26.906Z,8.08
2022-11-12T00:50:27.015Z,8.07
2022-11-12T00:51:27.026Z,8.04
2022-11-12T00:52:27.188Z,8.07
2022-11-12T00:53:27.195Z,8.04
2022-11-12T00:54:27.371Z,8.04
2022-11-12T00:55:27.442Z,8.03
2022-11-12T00:56:30.604Z,8.03
2022-11-12T00:57:27.598Z,8.00
2022-11-12T00:58:28.046Z,8.02
2022-11-12T00:59:27.759Z,7.99
2022-11-12T01:00:27.868Z,7.97
2022-11-12T01:01:27.997Z,7.96
2022-11-12T01:02:28.026Z,7.94
2022-11-12T01:03:28.166Z,7.96
2022-11-12T01:04:28.175Z,7.94
2022-11-12T01:05:28.267Z,7.93
2022-11-12T01:06:28.363Z,7.93
2022-11-12T01:07:28.359Z,7.93
2022-11-12T01:08:28.885Z,7.92
2022-11-12T01:09:28.633Z,7.92
2022-11-12T01:10:28.641Z,7.89
2022-11-12T01:11:28.762Z,7.90
2022-11-12T01:12:28.813Z,7.90
2022-11-12T01:13:28.876Z,7.89
2022-11-12T01:14:28.980Z,7.89
2022-11-12T01:15:29.061Z,7.87
2022-11-12T01:16:29.161Z,7.87
2022-11-12T01:17:29.238Z,7.87
2022-11-12T01:18:29.520Z,7.84
2022-11-12T01:19:29.440Z,7.87
2022-11-12T01:20:29.489Z,7.84
2022-11-12T01:21:29.587Z,7.84
2022-11-12T01:22:29.635Z,7.84
2022-11-12T01:23:29.802Z,7.84
2022-11-12T01:24:29.832Z,7.82
2022-11-12T01:25:29.886Z,7.84
2022-11-12T01:26:29.959Z,7.82
2022-11-12T01:27:30.050Z,7.82
2022-11-12T01:28:30.140Z,7.81
2022-11-12T01:29:30.251Z,7.79
2022-11-12T01:30:30.298Z,7.81
2022-11-12T01:31:30.399Z,7.79
2022-11-12T01:32:30.479Z,7.79
2022-11-12T01:33:30.573Z,7.77
2022-11-12T01:34:30.625Z,7.78
2022-11-12T01:35:30.667Z,7.77
2022-11-12T01:36:30.760Z,7.77
2022-11-12T01:37:30.839Z,7.77
2022-11-12T01:38:30.915Z,7.77
2022-11-12T01:39:31.046Z,7.77
2022-11-12T01:40:31.128Z,7.75
2022-11-12T01:41:31.156Z,7.74
2022-11-12T01:42:31.238Z,7.75
2022-11-12T01:43:31.328Z,7.74
2022-11-12T01:44:31.469Z,7.74
2022-11-12T01:45:31.500Z,7.74
2022-11-12T01:46:31.566Z,7.72
2022-11-12T01:47:31.630Z,7.69
2022-11-12T01:48:31.703Z,7.69
2022-11-12T01:49:31.821Z,7.69
2022-11-12T01:50:31.836Z,7.69
2022-11-12T01:51:31.917Z,7.69
2022-11-12T01:52:32.015Z,7.67
2022-11-12T01:53:32.081Z,7.67
2022-11-12T01:54:32.189Z,7.67
2022-11-12T01:55:32.270Z,7.63
2022-11-12T01:56:32.346Z,7.69
2022-11-12T01:57:35.011Z,7.66
2022-11-12T01:58:32.530Z,7.66
2022-11-12T01:59:32.576Z,7.66
2022-11-12T02:00:32.652Z,7.63
2022-11-12T02:01:32.821Z,7.63
2022-11-12T02:02:32.825Z,7.62
2022-11-12T02:03:32.934Z,7.62
2022-11-12T02:04:33.044Z,7.60
2022-11-12T02:05:33.074Z,7.60
2022-11-12T02:06:33.145Z,7.60
2022-11-12T02:07:33.210Z,7.60
2022-11-12T02:08:33.288Z,7.59
2022-11-12T02:09:33.393Z,7.59
2022-11-12T02:10:33.420Z,7.59
2022-11-12T02:11:33.505Z,7.58
2022-11-12T02:12:33.573Z,7.56
2022-11-12T02:13:33.650Z,7.56
2022-11-12T02:14:33.738Z,7.56
2022-11-12T02:15:33.817Z,7.55
2022-11-12T02:16:33.891Z,7.53
2022-11-12T02:17:33.968Z,7.53
2022-11-12T02:18:34.046Z,7.52
2022-11-12T02:19:34.148Z,7.52
2022-11-12T02:20:34.246Z,7.50
2022-11-12T02:21:34.322Z,7.49
2022-11-12T02:22:34.398Z,7.50
2022-11-12T02:23:34.497Z,7.49
2022-11-12T02:24:34.611Z,7.47
2022-11-12T02:25:34.639Z,7.49
2022-11-12T02:26:34.713Z,7.49
2022-11-12T02:27:34.785Z,7.47
2022-11-12T02:28:34.848Z,7.47
2022-11-12T02:29:34.976Z,7.45
2022-11-12T02:30:35.049Z,7.47
2022-11-12T02:31:35.141Z,7.47
2022-11-12T02:32:35.219Z,7.45
2022-11-12T02:33:35.284Z,7.44
2022-11-12T02:34:35.388Z,7.45
2022-11-12T02:35:35.446Z,7.45
2022-11-12T02:36:35.511Z,7.44
2022-11-12T02:37:35.588Z,7.44
2022-11-12T02:38:35.660Z,7.44
2022-11-12T02:39:35.754Z,7.41
2022-11-12T02:40:35.857Z,7.42
2022-11-12T02:41:35.942Z,7.41
2022-11-12T02:42:36.022Z,7.41
2022-11-12T02:43:36.165Z,7.41
2022-11-12T02:44:36.171Z,7.40
2022-11-12T02:45:36.260Z,7.41
2022-11-12T02:46:36.345Z,7.38
2022-11-12T02:47:36.410Z,7.38
2022-11-12T02:48:36.482Z,7.38
2022-11-12T02:49:36.594Z,7.37
2022-11-12T02:50:36.627Z,7.37
2022-11-12T02:51:36.708Z,7.37
2022-11-12T02:52:36.784Z,7.35
2022-11-12T02:53:36.859Z,7.34
2022-11-12T02:54:36.971Z,7.34
2022-11-12T02:55:36.997Z,7.34
2022-11-12T02:56:37.065Z,7.35
2022-11-12T02:57:37.157Z,7.34
2022-11-12T02:58:37.227Z,7.34
2022-11-12T02:59:37.359Z,7.34
2022-11-12T03:00:37.441Z,7.34
2022-11-12T03:01:37.507Z,7.32
2022-11-12T03:02:37.618Z,7.32
2022-11-12T03:03:37.691Z,7.34
2022-11-12T03:04:37.791Z,7.32
2022-11-12T03:05:37.819Z,7.34
2022-11-12T03:06:37.929Z,7.34
2022-11-12T03:07:37.984Z,7.34
2022-11-12T03:08:38.051Z,7.32
2022-11-12T03:09:38.133Z,7.34
2022-11-12T03:10:38.220Z,7.32
2022-11-12T03:11:38.315Z,7.32
2022-11-12T03:12:38.389Z,7.32
2022-11-12T03:13:38.469Z,7.31
2022-11-12T03:14:38.551Z,7.31
2022-11-12T03:15:38.631Z,7.31
2022-11-12T03:16:38.695Z,7.29
2022-11-12T03:17:38.767Z,7.29
2022-11-12T03:18:38.871Z,7.27
2022-11-12T03:19:38.964Z,7.29
2022-11-12T03:20:39.052Z,7.27
2022-11-12T03:21:39.126Z,7.27
2022-11-12T03:22:39.210Z,7.26
2022-11-12T03:23:39.295Z,7.24
2022-11-12T03:24:39.414Z,7.23
2022-11-12T03:25:39.422Z,7.22
2022-11-12T03:26:39.499Z,7.23
2022-11-12T03:27:39.568Z,7.20
2022-11-12T03:28:39.639Z,7.20
2022-11-12T03:29:39.725Z,7.20
2022-11-12T03:30:39.801Z,7.20
2022-11-12T03:31:39.885Z,7.20
2022-11-12T03:32:39.989Z,7.20
2022-11-12T03:33:40.052Z,7.20
2022-11-12T03:34:40.141Z,7.19
2022-11-12T03:35:40.231Z,7.20
2022-11-12T03:36:40.310Z,7.19
2022-11-12T03:37:40.389Z,7.20
2022-11-12T03:38:40.462Z,7.17
2022-11-12T03:39:40.552Z,7.17
2022-11-12T03:40:40.629Z,7.17
2022-11-12T03:41:40.703Z,7.19
2022-11-12T03:42:40.785Z,7.19
2022-11-12T03:43:40.865Z,7.17
2022-11-12T03:44:40.952Z,7.19
2022-11-12T03:45:41.022Z,7.19
2022-11-12T03:46:44.185Z,7.17
2022-11-12T03:47:41.179Z,7.19
2022-11-12T03:48:41.251Z,7.20
2022-11-12T03:49:41.336Z,7.19
2022-11-12T03:50:41.418Z,7.19
2022-11-12T03:51:41.482Z,7.19
2022-11-12T03:52:41.548Z,7.19
2022-11-12T03:53:41.615Z,7.17
2022-11-12T03:54:41.705Z,7.20
2022-11-12T03:55:41.781Z,7.19
2022-11-12T03:56:41.861Z,7.20
2022-11-12T03:57:41.957Z,7.20
2022-11-12T03:58:42.033Z,7.19
2022-11-12T03:59:42.124Z,7.19
2022-11-12T04:00:42.208Z,7.20
2022-11-12T04:01:42.261Z,7.19
2022-11-12T04:02:42.330Z,7.19
2022-11-12T04:03:42.410Z,7.17
2022-11-12T04:04:42.495Z,7.17
2022-11-12T04:05:42.571Z,7.17
2022-11-12T04:06:42.752Z,7.17
2022-11-12T04:07:42.731Z,7.16
2022-11-12T04:08:42.823Z,7.16
2022-11-12T04:09:42.910Z,7.13
2022-11-12T04:10:42.990Z,7.09
2022-11-12T04:11:43.063Z,7.08
2022-11-12T04:12:43.128Z,7.08
2022-11-12T04:13:43.218Z,7.07
2022-11-12T04:14:43.310Z,7.05
2022-11-12T04:15:43.341Z,7.08
2022-11-12T04:16:43.418Z,7.05
2022-11-12T04:17:43.482Z,7.05
2022-11-12T04:18:43.553Z,7.05
2022-11-12T04:19:43.647Z,7.05
2022-11-12T04:20:43.734Z,7.04
2022-11-12T04:21:43.786Z,7.05
2022-11-12T04:22:43.856Z,7.05
2022-11-12T04:23:43.932Z,7.04
2022-11-12T04:24:44.065Z,7.05
2022-11-12T04:25:44.093Z,7.05
2022-11-12T04:26:44.178Z,7.05
2022-11-12T04:27:44.255Z,7.05
2022-11-12T04:28:44.332Z,7.05
2022-11-12T04:29:44.421Z,7.05
2022-11-12T04:30:44.486Z,7.05
2022-11-12T04:31:44.558Z,7.05
2022-11-12T04:32:44.638Z,7.05
2022-11-12T04:33:44.709Z,7.07
2022-11-12T04:34:44.878Z,7.05
2022-11-12T04:35:44.854Z,7.04
2022-11-12T04:36:44.928Z,7.02
2022-11-12T04:37:45.084Z,7.04
2022-11-12T04:38:45.049Z,7.04
2022-11-12T04:39:45.139Z,7.04
2022-11-12T04:40:45.214Z,7.02
2022-11-12T04:41:45.353Z,7.04
2022-11-12T04:42:45.382Z,7.02
2022-11-12T04:43:45.456Z,7.05
2022-11-12T04:44:45.551Z,7.04
2022-11-12T04:45:45.644Z,7.05
2022-11-12T04:46:45.709Z,7.04
2022-11-12T04:47:45.779Z,7.05
2022-11-12T04:48:45.853Z,7.04
2022-11-12T04:49:45.946Z,7.04
2022-11-12T04:50:46.023Z,7.02
2022-11-12T04:51:46.102Z,7.04
2022-11-12T04:52:46.164Z,7.04
2022-11-12T04:53:46.237Z,7.04
2022-11-12T04:54:46.334Z,7.02
2022-11-12T04:55:46.408Z,7.04
2022-11-12T04:56:46.504Z,7.05
2022-11-12T04:57:46.609Z,7.04
2022-11-12T04:58:46.681Z,7.04
2022-11-12T04:59:46.806Z,7.02
2022-11-12T05:00:46.837Z,7.02
2022-11-12T05:01:46.915Z,7.02
2022-11-12T05:02:47.010Z,7.01
2022-11-12T05:03:47.089Z,7.02
2022-11-12T05:04:47.140Z,6.99
2022-11-12T05:05:47.245Z,6.99
2022-11-12T05:06:47.358Z,6.99
2022-11-12T05:07:47.355Z,6.99
2022-11-12T05:08:47.428Z,6.98
2022-11-12T05:09:47.527Z,6.97
2022-11-12T05:10:47.604Z,6.98
2022-11-12T05:11:47.660Z,6.97
2022-11-12T05:12:47.760Z,6.98
2022-11-12T05:13:47.848Z,6.97
2022-11-12T05:14:47.954Z,6.97
2022-11-12T05:15:48.028Z,6.97
2022-11-12T05:16:48.227Z,6.97
2022-11-12T05:17:48.173Z,6.97
2022-11-12T05:18:48.264Z,6.97
2022-11-12T05:19:48.380Z,6.95
2022-11-12T05:20:48.485Z,6.95
2022-11-12T05:21:48.468Z,6.95
2022-11-12T05:23:05.108Z,6.94
2022-11-12T05:23:48.634Z,6.95
2022-11-12T05:24:48.741Z,6.94
2022-11-12T05:25:48.783Z,6.94
2022-11-12T05:26:48.887Z,6.95
2022-11-12T05:27:48.964Z,6.94
2022-11-12T06:18:45.585Z,5.74
2022-11-12T06:26:49.376Z,5.71
2022-11-12T06:50:28.478Z,5.59
2022-11-12T07:15:24.877Z,5.48
2022-11-12T07:21:13.827Z,5.55
2022-11-12T07:22:14.705Z,5.56
2022-11-12T07:23:14.778Z,5.60
2022-11-12T07:24:14.842Z,5.67
2022-11-12T07:25:14.927Z,5.73
2022-11-12T07:26:14.981Z,5.81
2022-11-12T07:27:15.104Z,5.85
2022-11-12T07:30:09.083Z,5.88
2022-11-12T07:31:10.137Z,5.88
2022-11-12T07:32:10.342Z,5.89
2022-11-12T07:33:10.326Z,5.92
2022-11-12T07:34:10.495Z,5.96
2022-11-12T07:35:10.601Z,6.00
2022-11-12T07:36:10.510Z,6.06
2022-11-12T07:39:00.046Z,6.09
2022-11-12T07:40:01.126Z,6.07
2022-11-12T07:44:24.802Z,6.03
2022-11-12T07:45:25.944Z,6.03
2022-11-12T07:46:25.971Z,6.06
2022-11-12T07:47:26.009Z,6.07
2022-11-12T07:48:26.531Z,6.13
2022-11-12T07:49:26.163Z,6.16
2022-11-12T07:50:26.446Z,6.19
2022-11-12T07:51:26.452Z,6.25
2022-11-12T07:52:26.411Z,6.28
2022-11-12T07:53:26.483Z,6.30
2022-11-12T07:54:26.552Z,6.33
2022-11-12T07:55:26.660Z,6.36
2022-11-12T07:56:26.745Z,6.38
2022-11-12T07:57:26.822Z,6.43
2022-11-12T07:58:27.277Z,6.44
2022-11-12T07:59:27.061Z,6.47
2022-11-12T08:00:27.048Z,6.48
2022-11-12T08:01:27.161Z,6.51
2022-11-12T08:02:27.195Z,6.54
2022-11-12T08:03:27.295Z,6.56
2022-11-12T08:04:27.382Z,6.58
2022-11-12T08:05:27.462Z,6.59
2022-11-12T08:06:27.564Z,6.62
2022-11-12T08:07:27.744Z,6.62
2022-11-12T08:08:28.278Z,6.65
2022-11-12T08:09:27.814Z,6.66
2022-11-12T08:10:27.906Z,6.66
2022-11-12T08:11:28.004Z,6.69
2022-11-12T08:12:28.071Z,6.71
2022-11-12T08:13:28.140Z,6.72
2022-11-12T08:14:28.219Z,6.72
2022-11-12T08:15:28.310Z,6.73
2022-11-12T08:16:28.419Z,6.76
2022-11-12T08:17:28.501Z,6.77
2022-11-12T08:18:28.973Z,6.79
2022-11-12T08:19:28.836Z,6.80
2022-11-12T08:20:28.753Z,6.81
2022-11-12T08:21:28.902Z,6.81
2022-11-12T08:22:28.968Z,6.83
2022-11-12T08:23:29.037Z,6.84
2022-11-12T08:24:29.132Z,6.86
2022-11-12T08:25:29.241Z,6.86
2022-11-12T08:26:29.362Z,6.89
2022-11-12T08:27:29.391Z,6.89
2022-11-12T08:28:29.901Z,6.90
2022-11-12T08:29:29.567Z,6.90
2022-11-12T08:30:29.680Z,6.90
2022-11-12T08:31:29.725Z,6.91
2022-11-12T08:32:29.827Z,6.91
2022-11-12T08:33:29.898Z,6.95
2022-11-12T08:34:29.980Z,6.95
2022-11-12T08:35:30.074Z,6.97
2022-11-12T08:36:30.227Z,6.95
2022-11-12T08:37:30.231Z,6.98
2022-11-12T08:38:30.499Z,6.98
2022-11-12T08:39:30.453Z,6.98
2022-11-12T08:40:30.454Z,6.98
2022-11-12T08:41:30.562Z,6.99
2022-11-12T08:42:30.646Z,7.01
2022-11-12T08:43:30.733Z,7.02
2022-11-12T08:44:30.818Z,7.04
2022-11-12T08:45:30.967Z,7.01
2022-11-12T08:46:31.036Z,7.04
2022-11-12T08:47:31.072Z,7.05
2022-11-12T08:48:31.161Z,7.07
2022-11-12T08:49:31.257Z,7.09
2022-11-12T08:50:31.318Z,7.12
2022-11-12T08:51:31.428Z,7.12
2022-11-12T08:52:31.522Z,7.13
2022-11-12T08:53:31.536Z,7.16
2022-11-12T08:54:31.747Z,7.15
2022-11-12T08:55:31.721Z,7.16
2022-11-12T08:56:31.858Z,7.17
2022-11-12T08:57:31.927Z,7.19
2022-11-12T08:58:31.993Z,7.19
2022-11-12T08:59:32.031Z,7.20
2022-11-12T09:00:32.130Z,7.22
2022-11-12T09:01:32.268Z,7.23
2022-11-12T09:02:32.285Z,7.24
2022-11-12T09:03:32.407Z,7.27
2022-11-12T09:04:32.437Z,7.26
2022-11-12T09:05:32.507Z,7.31
2022-11-12T09:06:32.614Z,7.32
2022-11-12T09:07:49.561Z,7.31
2022-11-12T09:08:32.726Z,7.34
2022-11-12T09:09:32.807Z,7.37
2022-11-12T09:10:32.882Z,7.38
2022-11-12T09:11:33.001Z,7.38
2022-11-12T09:12:33.048Z,7.40
2022-11-12T09:13:33.206Z,7.42
2022-11-12T09:14:33.224Z,7.44
2022-11-12T09:15:38.344Z,7.45
2022-11-12T09:16:33.450Z,7.47
2022-11-12T09:17:33.494Z,7.50
2022-11-12T09:18:33.598Z,7.52
2022-11-12T09:19:34.361Z,7.55
2022-11-12T09:20:33.767Z,7.55
2022-11-12T09:21:33.823Z,7.56
2022-11-12T09:22:33.901Z,7.58
2022-11-12T09:23:33.994Z,7.62
2022-11-12T09:24:34.079Z,7.63
2022-11-12T09:25:34.216Z,7.63
2022-11-12T09:26:34.291Z,7.66
2022-11-12T09:27:34.339Z,7.67
2022-11-12T09:28:34.452Z,7.71
2022-11-12T09:29:34.623Z,7.72
2022-11-12T09:41:08.534Z,7.34
2022-11-12T09:42:09.561Z,7.34
2022-11-12T09:43:09.578Z,7.35
2022-11-12T09:44:09.640Z,7.40
2022-11-12T09:45:09.780Z,7.42
2022-11-12T09:47:10.031Z,7.55
2022-11-12T09:48:09.970Z,7.56
2022-11-12T09:49:10.032Z,7.60
2022-11-12T09:50:28.410Z,7.66
2022-11-12T09:51:10.209Z,7.69
2022-11-12T09:52:27.875Z,7.72
2022-11-12T09:53:10.855Z,7.75
2022-11-12T09:54:10.429Z,7.78
2022-11-12T09:55:10.514Z,7.79
2022-11-12T09:56:10.579Z,7.84
2022-11-12T09:57:10.670Z,7.87
2022-11-12T09:58:10.792Z,7.93
2022-11-12T09:59:10.865Z,7.93
2022-11-12T10:00:11.015Z,7.97
2022-11-12T10:01:11.141Z,7.99
2022-11-12T10:02:11.303Z,8.02
2022-11-12T10:03:11.168Z,8.04
2022-11-12T10:04:11.231Z,8.08
2022-11-12T10:05:11.408Z,8.12
2022-11-12T10:06:13.653Z,8.17
2022-11-12T10:07:11.604Z,8.21
2022-11-12T10:08:11.583Z,8.26
2022-11-12T10:09:11.662Z,8.28
2022-11-12T10:10:11.744Z,8.30
2022-11-12T10:11:11.888Z,8.32
2022-11-12T10:12:11.877Z,8.35
2022-11-12T10:13:12.637Z,8.37
2022-11-12T10:14:12.142Z,8.42
2022-11-12T10:15:12.142Z,8.44
2022-11-12T10:16:12.174Z,8.48
2022-11-12T10:17:12.262Z,8.51
2022-11-12T10:18:12.368Z,8.57
2022-11-12T10:19:12.407Z,8.60
2022-11-12T10:20:12.486Z,8.63
2022-11-12T10:21:12.568Z,8.69
2022-11-12T10:22:12.645Z,8.72
2022-11-12T10:23:12.755Z,8.75
2022-11-12T10:24:12.790Z,8.78
2022-11-12T10:25:12.888Z,8.78
2022-11-12T10:26:12.929Z,8.83
2022-11-12T10:27:13.009Z,8.84
2022-11-12T10:28:13.107Z,8.87
2022-11-12T10:29:13.213Z,8.90
2022-11-12T10:30:13.270Z,8.93
2022-11-12T10:31:13.343Z,8.94
2022-11-12T10:32:13.436Z,8.97
2022-11-12T10:33:13.562Z,9.01
2022-11-12T10:34:13.642Z,9.02
2022-11-12T10:35:13.738Z,9.06
2022-11-12T10:36:13.813Z,9.10
2022-11-12T10:37:13.881Z,9.16
2022-11-12T10:38:13.997Z,9.16
2022-11-12T10:39:14.012Z,9.18
2022-11-12T10:40:14.147Z,9.16
2022-11-12T10:41:14.222Z,9.16
2022-11-12T10:42:14.305Z,9.15
2022-11-12T10:43:14.407Z,9.16
2022-11-12T10:44:14.612Z,9.15
2022-11-12T10:45:14.552Z,9.16
2022-11-12T10:46:14.637Z,9.20
2022-11-12T10:47:14.744Z,9.23
2022-11-12T10:48:14.786Z,9.25
2022-11-12T10:49:14.871Z,9.30
2022-11-12T10:50:14.966Z,9.32
2022-11-12T10:51:15.047Z,9.38
2022-11-12T10:52:15.114Z,9.40
2022-11-12T10:53:15.235Z,9.40
2022-11-12T10:54:15.274Z,9.43
2022-11-12T10:55:15.342Z,9.45
2022-11-12T10:56:15.425Z,9.48
2022-11-12T10:57:15.522Z,9.49
2022-11-12T10:58:15.610Z,9.50
2022-11-12T10:59:15.706Z,9.53
2022-11-12T11:00:15.786Z,9.53
2022-11-12T11:01:15.907Z,9.57
2022-11-12T11:02:15.973Z,9.60
2022-11-12T11:03:16.046Z,9.63
2022-11-12T11:04:16.088Z,9.67
2022-11-12T11:05:16.210Z,9.70
2022-11-12T11:06:16.311Z,9.75
2022-11-12T11:07:16.438Z,9.81
2022-11-12T11:08:16.398Z,9.82
2022-11-12T11:09:16.636Z,9.86
2022-11-12T11:10:16.660Z,9.88
2022-11-12T11:11:16.663Z,9.91
2022-11-12T11:12:16.740Z,9.93
2022-11-12T11:13:16.848Z,9.97
2022-11-12T11:14:16.925Z,9.99
2022-11-12T11:15:17.032Z,10.01
2022-11-12T11:16:17.088Z,10.06
2022-11-12T11:17:17.166Z,10.09
2022-11-12T11:18:17.271Z,10.14
2022-11-12T11:19:17.410Z,10.17
2022-11-12T11:20:17.415Z,10.18
2022-11-12T11:21:17.512Z,10.22
2022-11-12T11:22:17.600Z,10.24
2022-11-12T11:23:17.693Z,10.25
2022-11-12T11:24:17.792Z,10.26
2022-11-12T11:25:17.914Z,10.30
2022-11-12T11:26:17.952Z,10.32
2022-11-12T11:27:18.036Z,10.34
2022-11-12T11:28:18.139Z,10.37
2022-11-12T11:29:18.228Z,10.39
2022-11-12T11:30:18.263Z,10.39
2022-11-12T11:31:18.358Z,10.42
2022-11-12T11:32:18.467Z,10.42
2022-11-12T11:33:18.546Z,10.39
2022-11-12T11:34:18.611Z,10.40
2022-11-12T11:35:18.672Z,10.39
2022-11-12T11:36:18.738Z,10.39
2022-11-12T11:37:18.789Z,10.39
2022-11-12T11:38:18.925Z,10.42
2022-11-12T11:39:18.985Z,10.40
2022-11-12T11:40:19.050Z,10.40
2022-11-12T11:41:19.089Z,10.40
2022-11-12T11:42:19.179Z,10.39
2022-11-12T11:43:19.315Z,10.37
2022-11-12T11:44:19.421Z,10.36
2022-11-12T11:45:19.472Z,10.34
2022-11-12T11:46:19.564Z,10.34
2022-11-12T11:47:19.644Z,10.34
2022-11-12T11:48:19.746Z,10.37
2022-11-12T11:49:19.856Z,10.40
2022-11-12T11:50:19.898Z,10.42
2022-11-12T11:51:25.775Z,10.46
2022-11-12T11:52:20.027Z,10.51
2022-11-12T11:53:20.129Z,10.55
2022-11-12T11:54:20.178Z,10.56
2022-11-12T11:55:20.286Z,10.60
2022-11-12T11:56:20.330Z,10.65
2022-11-12T11:57:20.412Z,10.70
2022-11-12T11:58:20.515Z,10.73
2022-11-12T11:59:20.594Z,10.74
2022-11-12T12:00:20.679Z,10.77
2022-11-12T12:01:20.770Z,10.80
2022-11-12T12:02:20.827Z,10.81
2022-11-12T12:03:20.977Z,10.83
2022-11-12T12:04:21.005Z,10.88
2022-11-12T12:05:21.083Z,10.89
2022-11-12T12:06:21.166Z,10.91
2022-11-12T12:07:21.298Z,10.92
2022-11-12T12:08:21.391Z,10.95
2022-11-12T12:09:21.412Z,10.96
2022-11-12T12:10:21.844Z,10.99
2022-11-12T12:11:21.540Z,11.01
2022-11-12T12:12:21.623Z,11.01
2022-11-12T12:13:21.754Z,11.02
2022-11-12T12:14:21.791Z,11.01
2022-11-12T12:15:21.908Z,11.01
2022-11-12T12:16:21.982Z,11.02
2022-11-12T12:17:22.040Z,11.03
2022-11-12T12:18:22.181Z,11.07
2022-11-12T12:19:22.231Z,11.10
2022-11-12T12:20:22.345Z,11.09
2022-11-12T12:21:22.394Z,11.10
2022-11-12T12:22:22.482Z,11.13
2022-11-12T12:23:22.593Z,11.13
2022-11-12T12:24:22.639Z,11.14
2022-11-12T12:25:22.727Z,11.16
2022-11-12T12:26:22.793Z,11.19
2022-11-12T12:27:22.872Z,11.21
2022-11-12T12:28:23.015Z,11.24
2022-11-12T12:29:23.064Z,11.25
2022-11-12T12:30:23.204Z,11.28
2022-11-12T12:31:23.220Z,11.28
2022-11-12T12:32:24.578Z,11.31
2022-11-12T12:33:23.385Z,11.31
2022-11-12T12:34:23.466Z,11.34
2022-11-12T12:35:23.507Z,11.35
2022-11-12T12:36:23.615Z,11.36
2022-11-12T12:37:23.695Z,11.39
2022-11-12T12:38:24.011Z,11.41
2022-11-12T12:39:23.838Z,11.44
2022-11-12T12:40:23.909Z,11.46
2022-11-12T12:41:24.028Z,11.46
2022-11-12T12:42:24.085Z,11.50
2022-11-12T12:43:24.190Z,11.52
2022-11-12T12:44:24.243Z,11.53
2022-11-12T12:45:24.335Z,11.56
2022-11-12T12:46:24.431Z,11.59
2022-11-12T12:47:24.519Z,11.61
2022-11-12T12:48:24.931Z,11.62
2022-11-12T12:49:24.694Z,11.64
2022-11-12T12:50:24.780Z,11.65
2022-11-12T12:51:24.860Z,11.68
2022-11-12T12:52:24.936Z,11.71
2022-11-12T12:53:25.072Z,11.72
2022-11-12T12:54:25.134Z,11.74
2022-11-12T12:55:25.183Z,11.74
2022-11-12T12:56:25.310Z,11.77
2022-11-12T12:57:25.361Z,11.77
2022-11-12T12:58:25.824Z,11.80
2022-11-12T12:59:25.520Z,11.80
2022-11-12T13:00:25.660Z,11.80
2022-11-12T13:01:25.722Z,11.80
2022-11-12T13:02:25.781Z,11.83
2022-11-12T13:03:25.890Z,11.82
2022-11-12T13:04:25.931Z,11.83
2022-11-12T13:05:26.019Z,11.85
2022-11-12T13:06:26.101Z,11.86
2022-11-12T13:07:26.230Z,11.87
2022-11-12T13:08:26.664Z,11.87
2022-11-12T13:09:26.315Z,11.87
2022-11-12T13:10:26.395Z,11.87
2022-11-12T13:11:26.462Z,11.89
2022-11-12T13:12:26.560Z,11.89
2022-11-12T13:13:31.874Z,11.90
2022-11-12T13:14:26.741Z,11.90
2022-11-12T13:15:26.785Z,11.89
2022-11-12T13:16:26.862Z,11.93
2022-11-12T13:17:26.956Z,11.94
2022-11-12T13:18:27.222Z,11.96
2022-11-12T13:19:27.126Z,11.96
2022-11-12T13:20:27.192Z,11.97
2022-11-12T13:21:27.320Z,11.99
2022-11-12T13:22:27.383Z,12.01
2022-11-12T13:23:31.613Z,12.02
2022-11-12T13:24:27.607Z,12.02
2022-11-12T13:25:27.655Z,12.02
2022-11-12T13:26:27.725Z,12.02
2022-11-12T13:27:27.804Z,12.04
2022-11-12T13:28:28.358Z,12.04
2022-11-12T13:29:27.964Z,12.05
2022-11-12T13:30:28.055Z,12.06
2022-11-12T13:31:28.150Z,12.08
2022-11-12T13:32:28.225Z,12.08
2022-11-12T13:33:28.327Z,12.12
2022-11-12T13:34:28.411Z,12.11
2022-11-12T13:35:28.476Z,12.12
2022-11-12T13:36:28.563Z,12.13
2022-11-12T13:37:28.649Z,12.15
2022-11-12T13:38:29.090Z,12.15
2022-11-12T13:39:28.826Z,12.16
2022-11-12T13:40:28.953Z,12.16
2022-11-12T13:41:28.987Z,12.19
2022-11-12T13:42:29.075Z,12.20
2022-11-12T13:43:29.425Z,12.20
2022-11-12T13:44:29.265Z,12.20
2022-11-12T13:45:29.330Z,12.23
2022-11-12T13:46:29.414Z,12.21
2022-11-12T13:47:29.502Z,12.21
2022-11-12T13:48:29.912Z,12.23
2022-11-12T13:49:29.689Z,12.23
2022-11-12T13:50:29.759Z,12.23
2022-11-12T13:51:29.793Z,12.24
2022-11-12T13:52:29.858Z,12.23
2022-11-12T13:53:29.983Z,12.26
2022-11-12T13:54:30.022Z,12.26
2022-11-12T13:55:30.131Z,12.26
2022-11-12T13:56:30.187Z,12.26
2022-11-12T13:57:30.291Z,12.27
2022-11-12T13:58:30.406Z,12.27
2022-11-12T13:59:30.465Z,12.26
2022-11-12T14:00:30.604Z,12.29
2022-11-12T14:01:30.591Z,12.29
2022-11-12T14:02:30.664Z,12.27
2022-11-12T14:03:30.773Z,12.29
2022-11-12T14:04:30.858Z,12.30
2022-11-12T14:05:30.936Z,12.29
2022-11-12T14:06:30.998Z,12.29
2022-11-12T14:07:31.089Z,12.29
2022-11-12T14:08:31.219Z,12.29
2022-11-12T14:11:34.257Z,12.16
2022-11-12T14:12:35.321Z,12.12
2022-11-12T14:13:35.405Z,12.09
2022-11-12T14:14:35.453Z,12.09
2022-11-12T14:15:35.627Z,12.09
2022-11-12T14:16:35.718Z,12.09
2022-11-12T14:17:35.719Z,12.12
2022-11-12T14:18:35.835Z,12.11
2022-11-12T14:19:35.870Z,12.12
2022-11-12T14:20:35.956Z,12.12
2022-11-12T14:21:36.047Z,12.13
2022-11-12T14:22:36.144Z,12.12
2022-11-12T14:23:36.239Z,12.12
2022-11-12T14:24:36.348Z,12.12
2022-11-12T14:25:36.420Z,12.13
2022-11-12T14:26:36.515Z,12.12
2022-11-12T14:27:36.605Z,12.13
2022-11-12T14:28:36.725Z,12.12
2022-11-12T14:29:41.074Z,12.12
2022-11-12T14:30:36.872Z,12.12
2022-11-12T14:31:36.914Z,12.12
2022-11-12T14:32:37.009Z,12.12
2022-11-12T14:33:37.132Z,12.12
2022-11-12T14:34:37.195Z,12.11
2022-11-12T14:35:37.279Z,12.11
2022-11-12T14:36:37.366Z,12.09
2022-11-12T14:37:43.028Z,12.11
2022-11-12T14:38:37.565Z,12.09
2022-11-12T14:39:37.602Z,12.09
2022-11-12T14:40:37.680Z,12.08
2022-11-12T14:41:37.765Z,12.09
2022-11-12T14:42:37.858Z,12.08
2022-11-12T14:43:37.962Z,12.06
2022-11-12T14:44:38.007Z,12.06
2022-11-12T14:45:38.082Z,12.05
2022-11-12T14:46:38.173Z,12.04
2022-11-12T14:47:38.276Z,12.04
2022-11-12T14:48:38.340Z,12.02
2022-11-12T14:49:43.936Z,12.02
2022-11-12T14:50:41.114Z,12.02
2022-11-12T14:51:38.545Z,11.99
2022-11-12T14:52:38.636Z,11.99
2022-11-12T14:53:38.756Z,11.99
2022-11-12T14:54:38.796Z,11.97
2022-11-12T14:55:38.873Z,11.96
2022-11-12T14:56:38.962Z,11.96
2022-11-12T14:57:39.047Z,11.94
2022-11-12T14:58:39.160Z,11.93
2022-11-12T14:59:39.219Z,11.93
2022-11-12T15:00:39.403Z,11.93
2022-11-12T15:02:55.254Z,11.93
2022-11-12T15:03:39.560Z,11.89
2022-11-12T15:04:39.633Z,11.87
2022-11-12T15:05:39.739Z,11.87
2022-11-12T15:06:39.815Z,11.86
2022-11-12T15:07:39.846Z,11.86
2022-11-12T15:08:39.977Z,11.85
2022-11-12T15:09:40.018Z,11.85
2022-11-12T15:10:40.098Z,11.85
2022-11-12T15:11:40.186Z,11.83
2022-11-12T15:12:40.286Z,11.80
2022-11-12T15:13:40.403Z,11.78
2022-11-12T15:14:40.446Z,11.77
2022-11-12T15:15:40.523Z,11.77
2022-11-12T15:16:40.610Z,11.75
2022-11-12T15:17:40.706Z,11.75
2022-11-12T15:18:40.817Z,11.74
2022-11-12T15:19:40.883Z,11.71
2022-11-12T15:20:40.991Z,11.72
2022-11-12T15:21:41.073Z,11.70